sensor_id;sensor_type;location;lat;lon;timestamp;P1;durP1;ratioP1;P2;durP2;ratioP2
27187;SDS011;14708;50.872;5.306;2023-02-01T00:02:10;2.72;;;1.50;;
27187;SDS011;14708;50.872;5.306;2023-02-01T00:04:36;2.42;;;1.42;;
27187;SDS011;14708;50.872;5.306;2023-02-01T00:07:02;2.42;;;1.50;;
27187;SDS011;14708;50.872;5.306;2023-02-01T00:09:39;2.10;;;1.42;;
27187;SDS011;14708;50.872;5.306;2023-02-01T00:12:05;2.97;;;1.48;;
27187;SDS011;14708;50.872;5.306;2023-02-01T00:14:31;2.38;;;1.60;;
27187;SDS011;14708;50.872;5.306;2023-02-01T00:17:03;3.03;;;1.70;;
27187;SDS011;14708;50.872;5.306;2023-02-01T00:19:29;2.47;;;1.70;;
27187;SDS011;14708;50.872;5.306;2023-02-01T00:21:55;2.40;;;1.65;;
27187;SDS011;14708;50.872;5.306;2023-02-01T00:24:20;2.95;;;1.67;;
27187;SDS011;14708;50.872;5.306;2023-02-01T00:30:13;2.60;;;2.00;;
27187;SDS011;14708;50.872;5.306;2023-02-01T00:32:39;2.53;;;1.55;;
27187;SDS011;14708;50.872;5.306;2023-02-01T00:35:05;2.90;;;1.70;;
27187;SDS011;14708;50.872;5.306;2023-02-01T00:37:33;2.00;;;1.40;;
27187;SDS011;14708;50.872;5.306;2023-02-01T00:39:58;2.53;;;1.80;;
27187;SDS011;14708;50.872;5.306;2023-02-01T00:45:08;2.28;;;1.65;;
27187;SDS011;14708;50.872;5.306;2023-02-01T00:47:34;3.58;;;1.65;;
27187;SDS011;14708;50.872;5.306;2023-02-01T00:50:00;3.38;;;1.70;;
27187;SDS011;14708;50.872;5.306;2023-02-01T00:52:26;2.58;;;1.60;;
27187;SDS011;14708;50.872;5.306;2023-02-01T00:54:51;3.08;;;1.60;;
27187;SDS011;14708;50.872;5.306;2023-02-01T00:57:17;2.78;;;1.42;;
27187;SDS011;14708;50.872;5.306;2023-02-01T00:59:43;3.05;;;1.63;;
27187;SDS011;14708;50.872;5.306;2023-02-01T01:08:55;2.53;;;1.63;;
27187;SDS011;14708;50.872;5.306;2023-02-01T01:11:24;1.83;;;1.70;;
27187;SDS011;14708;50.872;5.306;2023-02-01T01:13:52;2.07;;;1.47;;
27187;SDS011;14708;50.872;5.306;2023-02-01T01:16:19;2.30;;;1.60;;
27187;SDS011;14708;50.872;5.306;2023-02-01T01:18:45;2.70;;;1.52;;
27187;SDS011;14708;50.872;5.306;2023-02-01T01:27:55;2.30;;;1.67;;
27187;SDS011;14708;50.872;5.306;2023-02-01T01:30:21;2.78;;;1.50;;
27187;SDS011;14708;50.872;5.306;2023-02-01T01:32:47;2.72;;;1.38;;
27187;SDS011;14708;50.872;5.306;2023-02-01T01:35:13;2.92;;;1.60;;
27187;SDS011;14708;50.872;5.306;2023-02-01T01:37:38;2.58;;;1.50;;
27187;SDS011;14708;50.872;5.306;2023-02-01T01:40:04;2.85;;;1.77;;
27187;SDS011;14708;50.872;5.306;2023-02-01T01:42:36;2.35;;;1.38;;
27187;SDS011;14708;50.872;5.306;2023-02-01T01:47:55;2.45;;;1.75;;
27187;SDS011;14708;50.872;5.306;2023-02-01T01:50:36;3.10;;;1.70;;
27187;SDS011;14708;50.872;5.306;2023-02-01T01:56:29;3.33;;;1.80;;
27187;SDS011;14708;50.872;5.306;2023-02-01T01:58:57;1.92;;;1.40;;
27187;SDS011;14708;50.872;5.306;2023-02-01T02:01:23;2.47;;;1.50;;
27187;SDS011;14708;50.872;5.306;2023-02-01T02:03:49;2.53;;;1.50;;
27187;SDS011;14708;50.872;5.306;2023-02-01T02:09:10;2.00;;;1.40;;
27187;SDS011;14708;50.872;5.306;2023-02-01T02:11:36;2.72;;;1.50;;
27187;SDS011;14708;50.872;5.306;2023-02-01T02:14:01;3.83;;;1.48;;
27187;SDS011;14708;50.872;5.306;2023-02-01T02:16:40;2.20;;;1.70;;
27187;SDS011;14708;50.872;5.306;2023-02-01T02:38:33;2.63;;;1.30;;
27187;SDS011;14708;50.872;5.306;2023-02-01T03:00:03;3.35;;;1.65;;
27187;SDS011;14708;50.872;5.306;2023-02-01T03:02:51;2.25;;;1.60;;
27187;SDS011;14708;50.872;5.306;2023-02-01T03:08:57;3.05;;;1.70;;
27187;SDS011;14708;50.872;5.306;2023-02-01T03:11:26;4.28;;;1.85;;
27187;SDS011;14708;50.872;5.306;2023-02-01T03:14:11;3.08;;;1.52;;
27187;SDS011;14708;50.872;5.306;2023-02-01T03:16:41;2.28;;;1.58;;
27187;SDS011;14708;50.872;5.306;2023-02-01T03:19:27;1.75;;;1.30;;
27187;SDS011;14708;50.872;5.306;2023-02-01T03:22:04;2.53;;;1.42;;
27187;SDS011;14708;50.872;5.306;2023-02-01T03:27:43;1.90;;;1.50;;
27187;SDS011;14708;50.872;5.306;2023-02-01T03:30:20;3.10;;;1.70;;
27187;SDS011;14708;50.872;5.306;2023-02-01T03:32:51;2.42;;;1.60;;
27187;SDS011;14708;50.872;5.306;2023-02-01T03:35:36;2.35;;;1.50;;
27187;SDS011;14708;50.872;5.306;2023-02-01T03:38:42;2.20;;;1.52;;
27187;SDS011;14708;50.872;5.306;2023-02-01T03:41:22;2.40;;;1.50;;
27187;SDS011;14708;50.872;5.306;2023-02-01T03:44:00;1.98;;;1.52;;
27187;SDS011;14708;50.872;5.306;2023-02-01T03:46:51;2.20;;;1.60;;
27187;SDS011;14708;50.872;5.306;2023-02-01T03:49:37;4.70;;;1.90;;
27187;SDS011;14708;50.872;5.306;2023-02-01T03:52:20;1.92;;;1.73;;
27187;SDS011;14708;50.872;5.306;2023-02-01T03:54:50;2.65;;;1.35;;
27187;SDS011;14708;50.872;5.306;2023-02-01T03:57:18;3.53;;;1.40;;
27187;SDS011;14708;50.872;5.306;2023-02-01T03:59:48;3.00;;;1.67;;
27187;SDS011;14708;50.872;5.306;2023-02-01T04:02:15;3.13;;;1.65;;
27187;SDS011;14708;50.872;5.306;2023-02-01T04:04:41;2.47;;;1.60;;
27187;SDS011;14708;50.872;5.306;2023-02-01T04:07:15;1.92;;;1.40;;
27187;SDS011;14708;50.872;5.306;2023-02-01T04:09:41;2.20;;;1.30;;
27187;SDS011;14708;50.872;5.306;2023-02-01T04:12:07;2.42;;;1.27;;
27187;SDS011;14708;50.872;5.306;2023-02-01T04:14:33;2.95;;;1.55;;
27187;SDS011;14708;50.872;5.306;2023-02-01T04:16:58;2.33;;;1.77;;
27187;SDS011;14708;50.872;5.306;2023-02-01T04:19:24;2.53;;;1.50;;
27187;SDS011;14708;50.872;5.306;2023-02-01T04:21:49;1.65;;;1.15;;
27187;SDS011;14708;50.872;5.306;2023-02-01T04:24:15;3.15;;;1.75;;
27187;SDS011;14708;50.872;5.306;2023-02-01T04:26:40;2.92;;;1.52;;
27187;SDS011;14708;50.872;5.306;2023-02-01T04:29:07;2.88;;;1.48;;
27187;SDS011;14708;50.872;5.306;2023-02-01T04:31:34;2.17;;;1.30;;
27187;SDS011;14708;50.872;5.306;2023-02-01T04:34:01;3.03;;;1.88;;
27187;SDS011;14708;50.872;5.306;2023-02-01T04:36:27;2.25;;;1.33;;
27187;SDS011;14708;50.872;5.306;2023-02-01T04:38:53;2.10;;;1.42;;
27187;SDS011;14708;50.872;5.306;2023-02-01T04:41:19;1.70;;;1.23;;
27187;SDS011;14708;50.872;5.306;2023-02-01T04:43:47;2.47;;;1.35;;
27187;SDS011;14708;50.872;5.306;2023-02-01T04:46:16;2.38;;;1.55;;
27187;SDS011;14708;50.872;5.306;2023-02-01T04:52:04;3.17;;;1.63;;
27187;SDS011;14708;50.872;5.306;2023-02-01T04:54:29;2.47;;;1.50;;
27187;SDS011;14708;50.872;5.306;2023-02-01T04:56:55;3.10;;;1.75;;
27187;SDS011;14708;50.872;5.306;2023-02-01T04:59:20;2.58;;;1.35;;
27187;SDS011;14708;50.872;5.306;2023-02-01T05:01:46;2.53;;;1.38;;
27187;SDS011;14708;50.872;5.306;2023-02-01T05:04:11;2.28;;;1.60;;
27187;SDS011;14708;50.872;5.306;2023-02-01T05:10:15;2.65;;;1.52;;
27187;SDS011;14708;50.872;5.306;2023-02-01T05:12:42;1.55;;;1.38;;
27187;SDS011;14708;50.872;5.306;2023-02-01T05:15:30;2.47;;;1.52;;
27187;SDS011;14708;50.872;5.306;2023-02-01T05:17:56;2.30;;;1.10;;
27187;SDS011;14708;50.872;5.306;2023-02-01T05:20:22;3.13;;;1.48;;
27187;SDS011;14708;50.872;5.306;2023-02-01T05:22:48;3.00;;;1.60;;
27187;SDS011;14708;50.872;5.306;2023-02-01T05:25:14;4.00;;;1.65;;
27187;SDS011;14708;50.872;5.306;2023-02-01T05:27:40;2.10;;;1.20;;
27187;SDS011;14708;50.872;5.306;2023-02-01T05:30:08;1.38;;;1.13;;
27187;SDS011;14708;50.872;5.306;2023-02-01T05:32:34;2.53;;;1.55;;
27187;SDS011;14708;50.872;5.306;2023-02-01T05:35:00;2.58;;;1.38;;
27187;SDS011;14708;50.872;5.306;2023-02-01T05:40:47;2.20;;;1.45;;
27187;SDS011;14708;50.872;5.306;2023-02-01T05:43:14;1.30;;;1.20;;
27187;SDS011;14708;50.872;5.306;2023-02-01T05:45:40;2.05;;;1.33;;
27187;SDS011;14708;50.872;5.306;2023-02-01T05:48:05;3.13;;;1.92;;
27187;SDS011;14708;50.872;5.306;2023-02-01T05:50:31;4.72;;;1.70;;
27187;SDS011;14708;50.872;5.306;2023-02-01T05:52:56;3.58;;;1.70;;
27187;SDS011;14708;50.872;5.306;2023-02-01T05:55:22;2.95;;;1.60;;
27187;SDS011;14708;50.872;5.306;2023-02-01T05:57:47;5.07;;;1.55;;
27187;SDS011;14708;50.872;5.306;2023-02-01T06:00:13;4.45;;;1.65;;
27187;SDS011;14708;50.872;5.306;2023-02-01T06:02:39;2.55;;;1.42;;
27187;SDS011;14708;50.872;5.306;2023-02-01T06:05:05;3.70;;;1.60;;
27187;SDS011;14708;50.872;5.306;2023-02-01T06:07:31;3.08;;;1.58;;
27187;SDS011;14708;50.872;5.306;2023-02-01T06:09:57;2.33;;;1.40;;
27187;SDS011;14708;50.872;5.306;2023-02-01T06:12:23;3.83;;;1.60;;
27187;SDS011;14708;50.872;5.306;2023-02-01T06:14:48;2.67;;;1.50;;
27187;SDS011;14708;50.872;5.306;2023-02-01T06:17:14;2.88;;;1.52;;
27187;SDS011;14708;50.872;5.306;2023-02-01T06:19:39;2.10;;;1.20;;
27187;SDS011;14708;50.872;5.306;2023-02-01T06:22:05;1.85;;;1.30;;
27187;SDS011;14708;50.872;5.306;2023-02-01T06:24:31;3.92;;;1.90;;
27187;SDS011;14708;50.872;5.306;2023-02-01T06:26:56;2.67;;;1.30;;
27187;SDS011;14708;50.872;5.306;2023-02-01T06:32:52;4.78;;;1.48;;
27187;SDS011;14708;50.872;5.306;2023-02-01T06:35:21;4.03;;;1.90;;
27187;SDS011;14708;50.872;5.306;2023-02-01T06:37:46;4.90;;;2.22;;
27187;SDS011;14708;50.872;5.306;2023-02-01T06:40:12;3.13;;;1.58;;
27187;SDS011;14708;50.872;5.306;2023-02-01T06:42:38;4.15;;;2.10;;
27187;SDS011;14708;50.872;5.306;2023-02-01T06:45:03;4.43;;;2.13;;
27187;SDS011;14708;50.872;5.306;2023-02-01T06:47:33;10.02;;;2.72;;
27187;SDS011;14708;50.872;5.306;2023-02-01T06:49:58;10.02;;;2.63;;
27187;SDS011;14708;50.872;5.306;2023-02-01T06:52:24;7.85;;;2.35;;
27187;SDS011;14708;50.872;5.306;2023-02-01T06:54:49;7.38;;;2.88;;
27187;SDS011;14708;50.872;5.306;2023-02-01T06:57:15;7.78;;;2.50;;
27187;SDS011;14708;50.872;5.306;2023-02-01T06:59:41;9.95;;;3.42;;
27187;SDS011;14708;50.872;5.306;2023-02-01T07:02:09;9.43;;;2.88;;
27187;SDS011;14708;50.872;5.306;2023-02-01T07:04:37;12.32;;;3.28;;
27187;SDS011;14708;50.872;5.306;2023-02-01T07:07:03;10.32;;;3.30;;
27187;SDS011;14708;50.872;5.306;2023-02-01T07:09:28;9.30;;;3.47;;
27187;SDS011;14708;50.872;5.306;2023-02-01T07:11:57;10.35;;;3.58;;
27187;SDS011;14708;50.872;5.306;2023-02-01T07:14:43;8.35;;;3.45;;
27187;SDS011;14708;50.872;5.306;2023-02-01T07:17:08;11.43;;;3.65;;
27187;SDS011;14708;50.872;5.306;2023-02-01T07:19:34;11.73;;;3.63;;
27187;SDS011;14708;50.872;5.306;2023-02-01T07:22:00;12.32;;;3.58;;
27187;SDS011;14708;50.872;5.306;2023-02-01T07:24:26;15.40;;;3.50;;
27187;SDS011;14708;50.872;5.306;2023-02-01T07:26:57;15.73;;;3.90;;
27187;SDS011;14708;50.872;5.306;2023-02-01T07:29:22;12.00;;;4.15;;
27187;SDS011;14708;50.872;5.306;2023-02-01T07:31:48;10.73;;;3.83;;
27187;SDS011;14708;50.872;5.306;2023-02-01T07:34:13;10.48;;;3.30;;
27187;SDS011;14708;50.872;5.306;2023-02-01T07:36:39;13.82;;;3.80;;
27187;SDS011;14708;50.872;5.306;2023-02-01T07:39:05;10.70;;;3.60;;
27187;SDS011;14708;50.872;5.306;2023-02-01T07:41:30;14.18;;;4.72;;
27187;SDS011;14708;50.872;5.306;2023-02-01T07:43:56;17.98;;;3.38;;
27187;SDS011;14708;50.872;5.306;2023-02-01T07:46:22;11.48;;;3.80;;
27187;SDS011;14708;50.872;5.306;2023-02-01T07:48:48;20.55;;;5.20;;
27187;SDS011;14708;50.872;5.306;2023-02-01T07:51:15;16.27;;;5.47;;
27187;SDS011;14708;50.872;5.306;2023-02-01T07:53:42;20.17;;;5.18;;
27187;SDS011;14708;50.872;5.306;2023-02-01T07:56:12;16.85;;;4.63;;
27187;SDS011;14708;50.872;5.306;2023-02-01T07:58:39;15.15;;;4.88;;
27187;SDS011;14708;50.872;5.306;2023-02-01T08:01:05;14.02;;;4.22;;
27187;SDS011;14708;50.872;5.306;2023-02-01T08:03:48;14.23;;;4.22;;
27187;SDS011;14708;50.872;5.306;2023-02-01T08:06:20;13.40;;;4.00;;
27187;SDS011;14708;50.872;5.306;2023-02-01T08:08:47;11.77;;;4.60;;
27187;SDS011;14708;50.872;5.306;2023-02-01T08:11:15;19.15;;;4.72;;
27187;SDS011;14708;50.872;5.306;2023-02-01T08:13:42;11.85;;;3.80;;
27187;SDS011;14708;50.872;5.306;2023-02-01T08:16:09;15.93;;;3.95;;
27187;SDS011;14708;50.872;5.306;2023-02-01T08:18:36;11.43;;;4.30;;
27187;SDS011;14708;50.872;5.306;2023-02-01T08:21:10;14.43;;;3.80;;
27187;SDS011;14708;50.872;5.306;2023-02-01T08:23:38;11.90;;;4.10;;
27187;SDS011;14708;50.872;5.306;2023-02-01T08:26:23;14.13;;;3.85;;
27187;SDS011;14708;50.872;5.306;2023-02-01T08:28:54;16.33;;;4.88;;
27187;SDS011;14708;50.872;5.306;2023-02-01T08:31:22;20.33;;;4.72;;
27187;SDS011;14708;50.872;5.306;2023-02-01T08:33:49;23.63;;;4.80;;
27187;SDS011;14708;50.872;5.306;2023-02-01T08:36:16;24.10;;;4.95;;
27187;SDS011;14708;50.872;5.306;2023-02-01T08:38:42;21.00;;;5.03;;
27187;SDS011;14708;50.872;5.306;2023-02-01T08:41:09;21.75;;;4.85;;
27187;SDS011;14708;50.872;5.306;2023-02-01T08:43:39;18.58;;;4.97;;
27187;SDS011;14708;50.872;5.306;2023-02-01T08:46:07;17.75;;;4.53;;
27187;SDS011;14708;50.872;5.306;2023-02-01T08:48:33;20.23;;;3.85;;
27187;SDS011;14708;50.872;5.306;2023-02-01T08:51:01;17.75;;;4.50;;
27187;SDS011;14708;50.872;5.306;2023-02-01T08:53:28;12.70;;;4.30;;
27187;SDS011;14708;50.872;5.306;2023-02-01T08:55:54;20.85;;;4.32;;
27187;SDS011;14708;50.872;5.306;2023-02-01T08:58:19;21.83;;;3.97;;
27187;SDS011;14708;50.872;5.306;2023-02-01T09:00:46;16.65;;;4.00;;
27187;SDS011;14708;50.872;5.306;2023-02-01T09:05:41;11.35;;;3.92;;
27187;SDS011;14708;50.872;5.306;2023-02-01T09:08:07;13.15;;;3.75;;
27187;SDS011;14708;50.872;5.306;2023-02-01T09:10:33;15.07;;;3.85;;
27187;SDS011;14708;50.872;5.306;2023-02-01T09:13:00;12.98;;;3.38;;
27187;SDS011;14708;50.872;5.306;2023-02-01T09:15:26;15.57;;;3.83;;
27187;SDS011;14708;50.872;5.306;2023-02-01T09:17:51;17.60;;;3.67;;
27187;SDS011;14708;50.872;5.306;2023-02-01T09:20:17;14.55;;;3.75;;
27187;SDS011;14708;50.872;5.306;2023-02-01T09:22:47;16.17;;;4.05;;
27187;SDS011;14708;50.872;5.306;2023-02-01T09:25:13;13.27;;;3.83;;
27187;SDS011;14708;50.872;5.306;2023-02-01T09:27:38;13.95;;;4.22;;
27187;SDS011;14708;50.872;5.306;2023-02-01T09:30:04;13.55;;;3.65;;
27187;SDS011;14708;50.872;5.306;2023-02-01T09:32:30;10.20;;;3.15;;
27187;SDS011;14708;50.872;5.306;2023-02-01T09:34:56;16.75;;;3.70;;
27187;SDS011;14708;50.872;5.306;2023-02-01T09:37:21;21.23;;;4.45;;
27187;SDS011;14708;50.872;5.306;2023-02-01T09:40:03;24.63;;;5.65;;
27187;SDS011;14708;50.872;5.306;2023-02-01T09:48:19;36.35;;;7.45;;
27187;SDS011;14708;50.872;5.306;2023-02-01T09:50:52;32.03;;;7.13;;
27187;SDS011;14708;50.872;5.306;2023-02-01T09:53:22;37.05;;;7.28;;
27187;SDS011;14708;50.872;5.306;2023-02-01T09:56:26;32.10;;;6.00;;
27187;SDS011;14708;50.872;5.306;2023-02-01T10:01:56;20.15;;;5.28;;
27187;SDS011;14708;50.872;5.306;2023-02-01T10:04:29;24.60;;;5.68;;
27187;SDS011;14708;50.872;5.306;2023-02-01T10:25:54;22.85;;;5.53;;
27187;SDS011;14708;50.872;5.306;2023-02-01T10:28:24;20.25;;;4.75;;
27187;SDS011;14708;50.872;5.306;2023-02-01T10:30:51;18.98;;;5.00;;
27187;SDS011;14708;50.872;5.306;2023-02-01T10:33:23;16.35;;;5.15;;
27187;SDS011;14708;50.872;5.306;2023-02-01T10:39:20;21.40;;;5.07;;
27187;SDS011;14708;50.872;5.306;2023-02-01T10:41:46;20.67;;;5.75;;
27187;SDS011;14708;50.872;5.306;2023-02-01T10:44:13;27.17;;;6.78;;
27187;SDS011;14708;50.872;5.306;2023-02-01T10:46:45;21.70;;;6.57;;
27187;SDS011;14708;50.872;5.306;2023-02-01T10:49:18;26.27;;;6.35;;
27187;SDS011;14708;50.872;5.306;2023-02-01T11:05:57;19.85;;;5.45;;
27187;SDS011;14708;50.872;5.306;2023-02-01T11:08:23;25.73;;;7.07;;
27187;SDS011;14708;50.872;5.306;2023-02-01T11:10:56;29.05;;;7.07;;
27187;SDS011;14708;50.872;5.306;2023-02-01T11:13:32;22.90;;;6.10;;
27187;SDS011;14708;50.872;5.306;2023-02-01T11:16:03;23.27;;;6.00;;
27187;SDS011;14708;50.872;5.306;2023-02-01T11:18:31;24.38;;;6.85;;
27187;SDS011;14708;50.872;5.306;2023-02-01T11:21:03;20.00;;;5.88;;
27187;SDS011;14708;50.872;5.306;2023-02-01T11:23:30;18.55;;;4.72;;
27187;SDS011;14708;50.872;5.306;2023-02-01T11:26:07;25.33;;;5.93;;
27187;SDS011;14708;50.872;5.306;2023-02-01T11:28:38;20.60;;;5.45;;
27187;SDS011;14708;50.872;5.306;2023-02-01T11:31:12;18.20;;;5.68;;
27187;SDS011;14708;50.872;5.306;2023-02-01T11:33:45;23.42;;;5.68;;
27187;SDS011;14708;50.872;5.306;2023-02-01T11:36:15;19.17;;;5.28;;
27187;SDS011;14708;50.872;5.306;2023-02-01T11:38:53;15.27;;;4.37;;
27187;SDS011;14708;50.872;5.306;2023-02-01T11:41:33;14.43;;;5.20;;
27187;SDS011;14708;50.872;5.306;2023-02-01T11:44:00;18.25;;;5.75;;
27187;SDS011;14708;50.872;5.306;2023-02-01T11:46:42;16.15;;;4.55;;
27187;SDS011;14708;50.872;5.306;2023-02-01T11:49:24;16.48;;;4.90;;
27187;SDS011;14708;50.872;5.306;2023-02-01T12:13:29;10.30;;;3.67;;
27187;SDS011;14708;50.872;5.306;2023-02-01T12:37:33;8.00;;;2.88;;
27187;SDS011;14708;50.872;5.306;2023-02-01T12:45:42;9.85;;;3.60;;
27187;SDS011;14708;50.872;5.306;2023-02-01T13:00:47;10.48;;;2.80;;
27187;SDS011;14708;50.872;5.306;2023-02-01T13:16:56;8.55;;;2.88;;
27187;SDS011;14708;50.872;5.306;2023-02-01T13:25:52;7.22;;;3.35;;
27187;SDS011;14708;50.872;5.306;2023-02-01T13:42:53;7.78;;;2.55;;
27187;SDS011;14708;50.872;5.306;2023-02-01T13:45:26;9.40;;;2.72;;
27187;SDS011;14708;50.872;5.306;2023-02-01T13:47:55;9.75;;;2.90;;
27187;SDS011;14708;50.872;5.306;2023-02-01T13:50:32;8.00;;;2.65;;
27187;SDS011;14708;50.872;5.306;2023-02-01T13:53:13;9.75;;;2.70;;
27187;SDS011;14708;50.872;5.306;2023-02-01T13:55:59;10.32;;;2.60;;
27187;SDS011;14708;50.872;5.306;2023-02-01T13:58:36;8.85;;;2.75;;
27187;SDS011;14708;50.872;5.306;2023-02-01T14:21:48;15.18;;;3.38;;
27187;SDS011;14708;50.872;5.306;2023-02-01T14:24:26;10.50;;;2.63;;
27187;SDS011;14708;50.872;5.306;2023-02-01T14:26:57;12.80;;;3.47;;
27187;SDS011;14708;50.872;5.306;2023-02-01T14:29:32;17.35;;;5.10;;
27187;SDS011;14708;50.872;5.306;2023-02-01T14:32:05;30.10;;;12.70;;
27187;SDS011;14708;50.872;5.306;2023-02-01T14:37:23;32.00;;;19.48;;
27187;SDS011;14708;50.872;5.306;2023-02-01T14:40:00;43.83;;;23.20;;
27187;SDS011;14708;50.872;5.306;2023-02-01T14:55:45;42.67;;;25.30;;
27187;SDS011;14708;50.872;5.306;2023-02-01T14:58:39;47.75;;;25.02;;
27187;SDS011;14708;50.872;5.306;2023-02-01T15:01:25;42.30;;;24.35;;
27187;SDS011;14708;50.872;5.306;2023-02-01T15:14:24;40.47;;;24.17;;
27187;SDS011;14708;50.872;5.306;2023-02-01T15:16:51;40.63;;;23.45;;
27187;SDS011;14708;50.872;5.306;2023-02-01T15:19:21;36.00;;;22.98;;
27187;SDS011;14708;50.872;5.306;2023-02-01T15:21:49;36.67;;;24.07;;
27187;SDS011;14708;50.872;5.306;2023-02-01T15:26:54;33.08;;;20.80;;
27187;SDS011;14708;50.872;5.306;2023-02-01T15:29:21;28.42;;;16.98;;
27187;SDS011;14708;50.872;5.306;2023-02-01T15:31:52;33.13;;;18.40;;
27187;SDS011;14708;50.872;5.306;2023-02-01T15:34:18;44.20;;;21.55;;
27187;SDS011;14708;50.872;5.306;2023-02-01T15:36:47;65.78;;;25.60;;
27187;SDS011;14708;50.872;5.306;2023-02-01T15:39:25;59.45;;;24.52;;
27187;SDS011;14708;50.872;5.306;2023-02-01T15:41:54;47.58;;;22.10;;
27187;SDS011;14708;50.872;5.306;2023-02-01T15:46:57;50.40;;;21.25;;
27187;SDS011;14708;50.872;5.306;2023-02-01T15:51:49;43.47;;;20.55;;
27187;SDS011;14708;50.872;5.306;2023-02-01T15:54:16;38.80;;;20.25;;
27187;SDS011;14708;50.872;5.306;2023-02-01T15:56:56;47.90;;;20.13;;
27187;SDS011;14708;50.872;5.306;2023-02-01T15:59:45;44.38;;;20.02;;
27187;SDS011;14708;50.872;5.306;2023-02-01T16:04:51;43.25;;;19.23;;
27187;SDS011;14708;50.872;5.306;2023-02-01T16:07:28;39.85;;;19.08;;
27187;SDS011;14708;50.872;5.306;2023-02-01T16:09:57;57.05;;;20.65;;
27187;SDS011;14708;50.872;5.306;2023-02-01T16:12:44;38.83;;;16.80;;
27187;SDS011;14708;50.872;5.306;2023-02-01T16:15:11;28.02;;;13.75;;
27187;SDS011;14708;50.872;5.306;2023-02-01T16:17:37;30.00;;;13.40;;
27187;SDS011;14708;50.872;5.306;2023-02-01T16:23:24;33.92;;;14.63;;
27187;SDS011;14708;50.872;5.306;2023-02-01T16:25:51;34.83;;;15.13;;
27187;SDS011;14708;50.872;5.306;2023-02-01T16:28:16;31.00;;;15.68;;
27187;SDS011;14708;50.872;5.306;2023-02-01T16:30:42;34.33;;;14.93;;
27187;SDS011;14708;50.872;5.306;2023-02-01T16:33:10;27.02;;;13.32;;
27187;SDS011;14708;50.872;5.306;2023-02-01T16:35:40;27.25;;;13.43;;
27187;SDS011;14708;50.872;5.306;2023-02-01T16:38:11;25.08;;;12.35;;
27187;SDS011;14708;50.872;5.306;2023-02-01T16:40:41;26.23;;;12.57;;
27187;SDS011;14708;50.872;5.306;2023-02-01T16:43:11;25.17;;;12.05;;
27187;SDS011;14708;50.872;5.306;2023-02-01T16:45:41;25.08;;;12.85;;
27187;SDS011;14708;50.872;5.306;2023-02-01T16:48:23;23.55;;;12.40;;
27187;SDS011;14708;50.872;5.306;2023-02-01T16:50:53;28.08;;;12.50;;
27187;SDS011;14708;50.872;5.306;2023-02-01T16:53:21;29.02;;;13.70;;
27187;SDS011;14708;50.872;5.306;2023-02-01T16:55:48;25.27;;;12.52;;
27187;SDS011;14708;50.872;5.306;2023-02-01T16:58:15;23.50;;;11.80;;
27187;SDS011;14708;50.872;5.306;2023-02-01T17:00:42;27.90;;;12.68;;
27187;SDS011;14708;50.872;5.306;2023-02-01T17:03:09;28.42;;;12.50;;
27187;SDS011;14708;50.872;5.306;2023-02-01T17:05:36;26.42;;;12.00;;
27187;SDS011;14708;50.872;5.306;2023-02-01T17:08:02;23.23;;;11.25;;
27187;SDS011;14708;50.872;5.306;2023-02-01T17:10:31;29.90;;;12.63;;
27187;SDS011;14708;50.872;5.306;2023-02-01T17:12:57;23.10;;;11.52;;
27187;SDS011;14708;50.872;5.306;2023-02-01T17:15:25;23.08;;;10.73;;
27187;SDS011;14708;50.872;5.306;2023-02-01T17:17:56;22.40;;;11.27;;
27187;SDS011;14708;50.872;5.306;2023-02-01T17:20:23;21.88;;;10.68;;
27187;SDS011;14708;50.872;5.306;2023-02-01T17:22:51;23.63;;;11.48;;
27187;SDS011;14708;50.872;5.306;2023-02-01T17:25:18;25.08;;;12.40;;
27187;SDS011;14708;50.872;5.306;2023-02-01T17:27:46;30.30;;;11.90;;
27187;SDS011;14708;50.872;5.306;2023-02-01T17:30:12;28.27;;;12.30;;
27187;SDS011;14708;50.872;5.306;2023-02-01T17:32:39;23.30;;;10.43;;
27187;SDS011;14708;50.872;5.306;2023-02-01T17:35:05;21.67;;;10.48;;
27187;SDS011;14708;50.872;5.306;2023-02-01T17:37:36;22.70;;;11.25;;
27187;SDS011;14708;50.872;5.306;2023-02-01T17:40:02;21.80;;;11.00;;
27187;SDS011;14708;50.872;5.306;2023-02-01T17:42:28;25.17;;;11.02;;
27187;SDS011;14708;50.872;5.306;2023-02-01T17:47:56;23.35;;;10.32;;
27187;SDS011;14708;50.872;5.306;2023-02-01T17:50:22;18.42;;;9.75;;
27187;SDS011;14708;50.872;5.306;2023-02-01T17:52:52;19.75;;;10.23;;
27187;SDS011;14708;50.872;5.306;2023-02-01T17:55:18;19.77;;;10.18;;
27187;SDS011;14708;50.872;5.306;2023-02-01T17:57:47;19.83;;;9.98;;
27187;SDS011;14708;50.872;5.306;2023-02-01T18:00:13;23.90;;;10.80;;
27187;SDS011;14708;50.872;5.306;2023-02-01T18:02:40;21.73;;;10.45;;
27187;SDS011;14708;50.872;5.306;2023-02-01T18:07:58;19.90;;;10.25;;
27187;SDS011;14708;50.872;5.306;2023-02-01T18:10:23;19.33;;;10.95;;
27187;SDS011;14708;50.872;5.306;2023-02-01T18:12:49;19.70;;;9.80;;
27187;SDS011;14708;50.872;5.306;2023-02-01T18:17:42;22.05;;;9.10;;
27187;SDS011;14708;50.872;5.306;2023-02-01T18:20:12;19.45;;;9.73;;
27187;SDS011;14708;50.872;5.306;2023-02-01T18:22:42;19.70;;;8.65;;
27187;SDS011;14708;50.872;5.306;2023-02-01T18:25:19;28.13;;;9.75;;
27187;SDS011;14708;50.872;5.306;2023-02-01T18:27:47;24.13;;;9.40;;
27187;SDS011;14708;50.872;5.306;2023-02-01T18:30:14;18.23;;;10.23;;
27187;SDS011;14708;50.872;5.306;2023-02-01T18:32:43;18.50;;;9.73;;
27187;SDS011;14708;50.872;5.306;2023-02-01T18:35:16;19.55;;;9.45;;
27187;SDS011;14708;50.872;5.306;2023-02-01T18:37:44;16.52;;;9.45;;
27187;SDS011;14708;50.872;5.306;2023-02-01T18:40:12;15.23;;;8.73;;
27187;SDS011;14708;50.872;5.306;2023-02-01T18:42:39;17.15;;;9.00;;
27187;SDS011;14708;50.872;5.306;2023-02-01T18:45:10;20.25;;;9.90;;
27187;SDS011;14708;50.872;5.306;2023-02-01T18:47:47;16.38;;;8.85;;
27187;SDS011;14708;50.872;5.306;2023-02-01T18:50:13;16.42;;;8.80;;
27187;SDS011;14708;50.872;5.306;2023-02-01T18:52:39;17.50;;;8.32;;
27187;SDS011;14708;50.872;5.306;2023-02-01T18:55:05;14.93;;;8.15;;
27187;SDS011;14708;50.872;5.306;2023-02-01T18:57:32;15.73;;;8.35;;
27187;SDS011;14708;50.872;5.306;2023-02-01T18:59:59;21.58;;;8.35;;
27187;SDS011;14708;50.872;5.306;2023-02-01T19:02:28;14.23;;;7.78;;
27187;SDS011;14708;50.872;5.306;2023-02-01T19:04:53;19.30;;;8.52;;
27187;SDS011;14708;50.872;5.306;2023-02-01T19:07:19;15.55;;;8.10;;
27187;SDS011;14708;50.872;5.306;2023-02-01T19:09:44;15.23;;;7.97;;
27187;SDS011;14708;50.872;5.306;2023-02-01T19:12:10;19.95;;;8.45;;
27187;SDS011;14708;50.872;5.306;2023-02-01T19:14:36;16.20;;;8.35;;
27187;SDS011;14708;50.872;5.306;2023-02-01T19:17:02;18.88;;;7.85;;
27187;SDS011;14708;50.872;5.306;2023-02-01T19:26:12;16.85;;;7.65;;
27187;SDS011;14708;50.872;5.306;2023-02-01T19:28:40;14.77;;;7.38;;
27187;SDS011;14708;50.872;5.306;2023-02-01T19:31:07;18.20;;;8.27;;
27187;SDS011;14708;50.872;5.306;2023-02-01T19:33:33;15.57;;;7.82;;
27187;SDS011;14708;50.872;5.306;2023-02-01T19:35:59;17.27;;;7.90;;
27187;SDS011;14708;50.872;5.306;2023-02-01T19:38:29;14.27;;;7.57;;
27187;SDS011;14708;50.872;5.306;2023-02-01T19:41:00;13.63;;;7.50;;
27187;SDS011;14708;50.872;5.306;2023-02-01T19:43:26;15.80;;;8.45;;
27187;SDS011;14708;50.872;5.306;2023-02-01T19:45:52;13.60;;;7.28;;
27187;SDS011;14708;50.872;5.306;2023-02-01T19:48:18;16.85;;;8.68;;
27187;SDS011;14708;50.872;5.306;2023-02-01T19:50:44;15.20;;;7.85;;
27187;SDS011;14708;50.872;5.306;2023-02-01T19:53:10;15.80;;;7.88;;
27187;SDS011;14708;50.872;5.306;2023-02-01T19:55:36;15.68;;;7.60;;
27187;SDS011;14708;50.872;5.306;2023-02-01T19:58:02;13.02;;;7.30;;